createdAt,value
2022-12-18T00:01:07.014Z,33.10
2022-12-18T00:03:09.227Z,33.07
2022-12-18T00:05:12.086Z,33.08
2022-12-18T00:07:14.141Z,33.63
2022-12-18T00:09:16.485Z,35.40
2022-12-18T00:11:20.378Z,27.27
2022-12-18T00:13:22.436Z,30.80
2022-12-18T00:15:24.454Z,31.47
2022-12-18T00:17:26.406Z,31.77
2022-12-18T00:19:28.623Z,29.07
2022-12-18T00:21:32.340Z,32.13
2022-12-18T00:23:36.036Z,27.43
2022-12-18T00:25:38.347Z,29.47
2022-12-18T00:27:40.402Z,31.10
2022-12-18T00:29:42.764Z,29.70
2022-12-18T00:31:45.139Z,28.53
2022-12-18T00:33:47.586Z,28.93
2022-12-18T00:35:51.723Z,30.80
2022-12-18T00:37:53.664Z,30.30
2022-12-18T00:39:55.738Z,26.80
2022-12-18T00:42:16.141Z,29.23
2022-12-18T00:44:19.353Z,29.10
2022-12-18T00:46:21.451Z,29.33
2022-12-18T00:48:23.762Z,28.70
2022-12-18T00:50:26.720Z,32.23
2022-12-18T00:52:28.714Z,30.97
2022-12-18T00:54:30.830Z,29.40
2022-12-18T00:56:33.077Z,27.60
2022-12-18T00:58:35.040Z,29.07
2022-12-18T01:00:39.342Z,28.27
2022-12-18T01:02:42.090Z,29.07
2022-12-18T01:04:44.162Z,30.37
2022-12-18T01:06:46.330Z,30.67
2022-12-18T01:08:48.321Z,30.00
2022-12-18T01:10:50.334Z,34.53
2022-12-18T01:12:52.892Z,30.73
2022-12-18T01:14:54.864Z,28.87
2022-12-18T01:16:56.851Z,27.23
2022-12-18T01:18:58.995Z,28.80
2022-12-18T01:21:07.883Z,28.67
2022-12-18T01:23:12.566Z,28.35
2022-12-18T01:25:14.700Z,24.77
2022-12-18T01:27:16.895Z,30.03
2022-12-18T01:29:18.855Z,27.50
2022-12-18T01:31:21.906Z,27.02
2022-12-18T01:33:23.930Z,28.87
2022-12-18T01:35:26.000Z,28.17
2022-12-18T01:37:29.353Z,26.53
2022-12-18T01:39:32.864Z,27.60
2022-12-18T01:41:54.511Z,30.37
2022-12-18T01:43:58.459Z,28.87
2022-12-18T01:46:01.171Z,31.30
2022-12-18T01:48:06.938Z,31.27
2022-12-18T01:50:16.076Z,27.87
2022-12-18T01:52:18.552Z,28.37
2022-12-18T01:54:20.522Z,28.57
2022-12-18T01:56:23.109Z,28.10
2022-12-18T01:58:47.281Z,29.60
2022-12-18T02:00:49.714Z,26.53
2022-12-18T02:02:52.274Z,25.47
2022-12-18T02:04:54.993Z,28.00
2022-12-18T02:07:05.636Z,27.27
2022-12-18T02:09:20.744Z,28.40
2022-12-18T02:11:27.466Z,26.87
2022-12-18T02:13:41.728Z,25.27
2022-12-18T02:16:04.858Z,24.50
2022-12-18T02:18:13.970Z,28.40
2022-12-18T02:20:18.969Z,31.93
2022-12-18T02:22:39.219Z,27.67
2022-12-18T02:24:52.459Z,25.67
2022-12-18T02:26:58.562Z,26.50
2022-12-18T02:29:10.882Z,27.90
2022-12-18T02:31:18.605Z,28.47
2022-12-18T02:33:22.842Z,27.25
2022-12-18T02:35:28.924Z,28.98
2022-12-18T02:37:37.478Z,27.43
2022-12-18T02:39:43.292Z,28.90
2022-12-18T02:41:48.238Z,28.77
2022-12-18T02:43:57.132Z,24.83
2022-12-18T02:46:01.428Z,28.73
2022-12-18T02:48:06.256Z,31.07
2022-12-18T02:50:27.816Z,29.40
2022-12-18T02:52:32.426Z,26.93
2022-12-18T02:54:54.369Z,28.17
2022-12-18T02:56:59.832Z,28.27
2022-12-18T02:59:12.673Z,23.27
2022-12-18T03:01:42.936Z,27.47
2022-12-18T03:03:50.610Z,25.27
2022-12-18T03:06:10.681Z,27.33
2022-12-18T03:08:39.744Z,25.70
2022-12-18T03:10:55.412Z,25.63
2022-12-18T03:13:05.570Z,24.30
2022-12-18T03:15:17.967Z,28.37
2022-12-18T03:17:22.161Z,28.90
2022-12-18T03:19:27.295Z,27.05
2022-12-18T03:21:44.761Z,30.98
2022-12-18T03:23:49.480Z,25.57
2022-12-18T03:25:55.684Z,31.63
2022-12-18T03:28:02.644Z,30.00
2022-12-18T03:30:10.023Z,29.10
2022-12-18T03:32:18.318Z,29.15
2022-12-18T03:34:28.093Z,33.10
2022-12-18T03:36:30.289Z,28.17
2022-12-18T03:38:32.419Z,32.40
2022-12-18T03:41:04.453Z,31.92
2022-12-18T03:43:26.522Z,30.30
2022-12-18T03:45:35.921Z,30.55
2022-12-18T03:47:58.629Z,26.67
2022-12-18T03:50:13.419Z,29.92
2022-12-18T03:52:29.006Z,32.65
2022-12-18T03:54:32.533Z,34.93
2022-12-18T03:56:54.905Z,30.63
2022-12-18T03:58:58.202Z,32.35
2022-12-18T04:01:05.587Z,30.87
2022-12-18T04:03:09.580Z,35.30
2022-12-18T04:05:18.316Z,34.92
2022-12-18T04:07:21.871Z,30.83
2022-12-18T04:09:24.132Z,34.22
2022-12-18T04:11:26.621Z,31.43
2022-12-18T04:13:31.975Z,31.07
2022-12-18T04:15:36.785Z,30.37
2022-12-18T04:17:48.189Z,30.50
2022-12-18T04:19:51.593Z,32.65
2022-12-18T04:21:53.581Z,29.53
2022-12-18T04:23:55.793Z,32.60
2022-12-18T04:25:58.672Z,31.23
2022-12-18T04:28:24.095Z,33.27
2022-12-18T04:30:26.246Z,30.65
2022-12-18T04:32:28.509Z,29.48
2022-12-18T04:34:30.487Z,33.55
2022-12-18T04:36:33.841Z,32.70
2022-12-18T04:38:35.882Z,31.13
2022-12-18T04:40:43.507Z,32.40
2022-12-18T04:42:53.777Z,33.90
2022-12-18T04:44:55.823Z,29.27
2022-12-18T04:46:57.939Z,28.73
2022-12-18T04:48:59.902Z,30.80
2022-12-18T04:51:01.900Z,27.88
2022-12-18T04:53:03.958Z,27.30
2022-12-18T04:55:06.422Z,28.63
2022-12-18T04:57:08.416Z,27.23
2022-12-18T04:59:10.397Z,26.55
2022-12-18T05:01:15.124Z,23.35
2022-12-18T05:03:17.122Z,27.47
2022-12-18T05:05:19.144Z,24.30
2022-12-18T05:07:21.167Z,26.73
2022-12-18T05:09:23.708Z,25.38
2022-12-18T05:11:25.674Z,25.93
2022-12-18T05:13:28.291Z,24.47
2022-12-18T05:15:31.699Z,27.00
2022-12-18T05:17:33.700Z,26.58
2022-12-18T05:19:35.677Z,24.97
2022-12-18T05:21:37.766Z,24.90
2022-12-18T05:23:40.200Z,21.97
2022-12-18T05:25:42.483Z,27.53
2022-12-18T05:27:44.470Z,25.95
2022-12-18T05:29:46.580Z,24.10
2022-12-18T05:31:48.621Z,26.83
2022-12-18T05:33:50.706Z,26.92
2022-12-18T05:35:56.859Z,26.05
2022-12-18T05:37:58.818Z,23.43
2022-12-18T05:40:01.004Z,24.60
2022-12-18T05:42:02.950Z,24.03
2022-12-18T05:44:04.939Z,24.63
2022-12-18T05:46:11.333Z,24.57
2022-12-18T05:48:13.446Z,20.52
2022-12-18T05:50:15.459Z,23.98
2022-12-18T05:52:17.531Z,22.73
2022-12-18T05:54:19.536Z,23.27
2022-12-18T05:56:23.390Z,22.92
2022-12-18T05:58:25.838Z,22.33
2022-12-18T06:00:27.906Z,21.90
2022-12-18T06:02:30.037Z,22.42
2022-12-18T06:04:32.671Z,22.70
2022-12-18T06:06:34.663Z,24.25
2022-12-18T06:08:41.456Z,20.90
2022-12-18T06:10:52.696Z,22.83
2022-12-18T06:12:54.659Z,23.10
2022-12-18T06:14:56.657Z,22.00
2022-12-18T06:16:58.792Z,25.75
2022-12-18T06:19:01.535Z,20.98
2022-12-18T06:21:03.575Z,20.20
2022-12-18T06:23:05.533Z,20.93
2022-12-18T06:25:08.143Z,22.88
2022-12-18T06:27:10.244Z,23.92
2022-12-18T06:29:12.320Z,22.50
2022-12-18T06:31:14.394Z,20.63
2022-12-18T06:33:17.174Z,20.73
2022-12-18T06:35:19.138Z,22.60
2022-12-18T06:37:27.113Z,19.88
2022-12-18T06:39:29.429Z,24.05
2022-12-18T06:41:31.599Z,21.00
2022-12-18T06:43:33.629Z,20.93
2022-12-18T06:45:35.675Z,19.65
2022-12-18T06:47:37.810Z,22.30
2022-12-18T06:49:39.789Z,22.75
2022-12-18T06:51:41.798Z,21.10
2022-12-18T06:53:43.884Z,21.83
2022-12-18T06:55:45.924Z,19.93
2022-12-18T06:57:47.908Z,17.73
2022-12-18T06:59:49.893Z,20.70
2022-12-18T07:01:52.029Z,22.15
2022-12-18T07:03:55.695Z,23.10
2022-12-18T07:05:57.848Z,20.67
2022-12-18T07:08:00.090Z,20.43
2022-12-18T07:10:02.158Z,21.23
2022-12-18T07:12:05.971Z,18.80
2022-12-18T07:14:08.640Z,17.63
2022-12-18T07:16:19.688Z,21.63
2022-12-18T07:18:24.606Z,20.25
2022-12-18T07:20:26.629Z,20.07
2022-12-18T07:22:28.702Z,20.13
2022-12-18T07:24:30.646Z,24.70
2022-12-18T07:26:32.662Z,22.23
2022-12-18T07:28:35.562Z,24.33
2022-12-18T07:30:38.757Z,22.63
2022-12-18T07:32:40.902Z,21.97
2022-12-18T07:34:43.012Z,23.90
2022-12-18T07:36:45.019Z,22.65
2022-12-18T07:38:50.705Z,21.67
2022-12-18T07:40:52.682Z,21.17
2022-12-18T07:42:54.696Z,22.23
2022-12-18T07:44:56.670Z,22.63
2022-12-18T07:46:59.055Z,24.17
2022-12-18T07:49:01.019Z,22.50
2022-12-18T07:51:05.256Z,21.17
2022-12-18T07:53:07.257Z,20.38
2022-12-18T07:55:09.532Z,21.42
2022-12-18T07:57:33.736Z,21.05
2022-12-18T07:59:33.780Z,21.67
2022-12-18T08:01:35.852Z,20.45
2022-12-18T08:03:41.508Z,24.17
2022-12-18T08:05:44.758Z,23.23
2022-12-18T08:07:46.977Z,22.42
2022-12-18T08:09:48.956Z,19.87
2022-12-18T08:11:51.175Z,22.73
2022-12-18T08:13:53.766Z,24.80
2022-12-18T08:16:07.552Z,22.70
2022-12-18T08:18:14.023Z,24.30
2022-12-18T08:20:16.582Z,22.80
2022-12-18T08:22:18.666Z,24.30
2022-12-18T08:24:20.682Z,24.67
2022-12-18T08:26:23.489Z,23.07
2022-12-18T08:28:25.539Z,23.47
2022-12-18T08:30:27.615Z,21.90
2022-12-18T08:32:30.601Z,21.77
2022-12-18T08:34:32.618Z,22.50
2022-12-18T08:36:34.567Z,24.13
2022-12-18T08:38:36.815Z,21.20
2022-12-18T08:40:38.841Z,22.23
2022-12-18T08:43:03.609Z,22.20
2022-12-18T08:45:07.049Z,20.83
2022-12-18T08:47:09.368Z,21.77
2022-12-18T08:49:12.338Z,20.70
2022-12-18T08:51:17.158Z,22.57
2022-12-18T08:53:19.151Z,20.40
2022-12-18T08:55:21.224Z,20.90
2022-12-18T08:57:24.647Z,23.00
2022-12-18T08:59:26.875Z,21.20
2022-12-18T09:01:29.416Z,22.37
2022-12-18T09:03:31.672Z,22.90
2022-12-18T09:05:33.709Z,20.80
2022-12-18T09:07:35.758Z,21.73
2022-12-18T09:09:38.348Z,22.40
2022-12-18T09:11:40.571Z,21.80
2022-12-18T09:13:43.069Z,20.40
2022-12-18T09:15:50.513Z,20.83
2022-12-18T09:17:53.852Z,20.60
2022-12-18T09:19:55.852Z,23.50
2022-12-18T09:21:57.959Z,21.43
2022-12-18T09:24:00.313Z,21.17
2022-12-18T09:26:02.255Z,22.40
2022-12-18T09:28:17.078Z,19.80
2022-12-18T09:30:19.155Z,22.10
2022-12-18T09:32:22.665Z,19.10
2022-12-18T09:34:24.722Z,18.77
2022-12-18T09:36:26.773Z,20.40
2022-12-18T09:38:28.791Z,20.17
2022-12-18T09:40:36.486Z,20.43
2022-12-18T09:42:38.445Z,18.47
2022-12-18T09:44:45.344Z,20.70
2022-12-18T09:46:59.723Z,21.70
2022-12-18T09:49:04.872Z,22.33
2022-12-18T09:51:31.088Z,20.40
2022-12-18T09:53:35.962Z,20.50
2022-12-18T09:55:41.508Z,19.77
2022-12-18T09:57:50.243Z,20.63
2022-12-18T10:00:05.464Z,21.20
2022-12-18T10:02:19.304Z,19.20
2022-12-18T10:04:21.479Z,19.43
2022-12-18T10:06:54.179Z,21.93
2022-12-18T10:09:01.919Z,21.93
2022-12-18T10:11:17.548Z,20.20
2022-12-18T10:13:22.958Z,20.03
2022-12-18T10:15:51.236Z,19.63
2022-12-18T10:18:01.270Z,19.90
2022-12-18T10:20:04.972Z,18.57
2022-12-18T10:22:28.603Z,19.90
2022-12-18T10:24:34.992Z,19.70
2022-12-18T10:26:37.049Z,19.00
2022-12-18T10:28:41.006Z,19.77
2022-12-18T10:30:44.003Z,19.83
2022-12-18T10:32:46.101Z,19.33
2022-12-18T10:34:49.659Z,22.93
2022-12-18T10:36:51.711Z,21.87
2022-12-18T10:38:53.644Z,20.77
2022-12-18T10:41:02.810Z,18.50
2022-12-18T10:43:07.072Z,18.93
2022-12-18T10:45:09.052Z,21.80
2022-12-18T10:47:16.621Z,21.20
2022-12-18T10:49:27.949Z,20.13
2022-12-18T10:51:38.424Z,18.83
2022-12-18T10:53:41.692Z,17.73
2022-12-18T10:55:45.617Z,20.83
2022-12-18T10:57:47.750Z,19.70
2022-12-18T10:59:57.542Z,17.93
2022-12-18T11:01:59.842Z,19.40
2022-12-18T11:04:09.771Z,17.90
2022-12-18T11:06:17.820Z,18.63
2022-12-18T11:08:23.811Z,19.60
2022-12-18T11:10:34.173Z,20.80
2022-12-18T11:12:36.189Z,20.87
2022-12-18T11:14:48.893Z,23.53
2022-12-18T11:19:23.622Z,21.70
2022-12-18T11:21:26.525Z,22.30
2022-12-18T11:23:28.831Z,19.10
2022-12-18T11:25:32.276Z,20.70
2022-12-18T11:27:34.952Z,18.33
2022-12-18T11:29:43.367Z,18.37
2022-12-18T11:31:48.554Z,20.47
2022-12-18T11:36:43.392Z,18.60
2022-12-18T11:38:45.798Z,20.03
2022-12-18T11:40:56.699Z,18.23
2022-12-18T11:43:13.062Z,20.77
2022-12-18T11:45:14.999Z,17.60
2022-12-18T11:47:29.377Z,18.80
2022-12-18T11:49:37.173Z,19.00
2022-12-18T11:52:19.930Z,18.50
2022-12-18T11:54:21.941Z,18.37
2022-12-18T11:56:47.549Z,19.20
2022-12-18T11:59:08.168Z,22.63
2022-12-18T12:01:25.490Z,19.57
2022-12-18T12:03:52.323Z,21.10
2022-12-18T12:06:27.969Z,19.80
2022-12-18T12:08:38.964Z,19.90
2022-12-18T12:11:11.239Z,20.07
2022-12-18T12:13:22.777Z,20.47
2022-12-18T12:15:43.568Z,19.60
2022-12-18T12:18:22.132Z,20.10
2022-12-18T12:20:56.960Z,19.27
2022-12-18T12:23:26.086Z,18.50
2022-12-18T12:25:41.786Z,21.90
2022-12-18T12:27:58.970Z,19.30
2022-12-18T12:30:00.984Z,18.80
2022-12-18T12:32:12.086Z,16.57
2022-12-18T12:34:19.801Z,16.67
2022-12-18T12:36:25.733Z,18.93
2022-12-18T12:38:34.416Z,17.00
2022-12-18T12:40:53.513Z,17.90
2022-12-18T12:43:16.101Z,19.20
2022-12-18T12:45:24.383Z,18.10
2022-12-18T12:47:37.046Z,18.10
2022-12-18T12:49:40.935Z,17.80
2022-12-18T12:51:47.083Z,22.43
2022-12-18T12:53:49.929Z,18.80
2022-12-18T12:55:53.277Z,20.10
2022-12-18T12:58:16.464Z,17.57
2022-12-18T13:00:20.579Z,18.60
2022-12-18T13:02:30.551Z,19.47
2022-12-18T13:04:57.813Z,19.43
2022-12-18T13:07:05.657Z,20.37
2022-12-18T13:09:08.792Z,19.93
2022-12-18T13:11:59.780Z,17.93
2022-12-18T13:14:02.516Z,19.77
2022-12-18T13:16:08.608Z,18.50
2022-12-18T13:18:10.626Z,20.90
2022-12-18T13:20:15.910Z,18.80
2022-12-18T13:22:38.277Z,19.07
2022-12-18T13:24:40.910Z,17.17
2022-12-18T13:26:42.939Z,18.53
2022-12-18T13:28:48.145Z,21.50
2022-12-18T13:30:57.255Z,20.93
2022-12-18T13:33:14.895Z,25.50
2022-12-18T13:35:23.036Z,20.97
2022-12-18T13:37:32.607Z,20.10
2022-12-18T13:39:35.897Z,19.87
2022-12-18T13:41:38.340Z,20.20
2022-12-18T13:43:50.351Z,20.43
2022-12-18T13:46:20.292Z,19.93
2022-12-18T13:48:25.031Z,21.03
2022-12-18T13:50:33.967Z,18.27
2022-12-18T13:52:40.597Z,19.03
2022-12-18T13:54:43.806Z,20.53
2022-12-18T13:56:47.211Z,21.33
2022-12-18T13:59:16.043Z,22.97
2022-12-18T14:01:25.315Z,24.83
2022-12-18T14:03:29.951Z,19.67
2022-12-18T14:05:37.339Z,20.53
2022-12-18T14:07:41.959Z,20.10
2022-12-18T14:09:52.267Z,21.37
2022-12-18T14:12:18.412Z,20.00
2022-12-18T14:14:20.579Z,20.93
2022-12-18T14:16:23.235Z,18.13
2022-12-18T14:18:27.855Z,20.33
2022-12-18T14:20:32.572Z,20.33
2022-12-18T14:22:34.625Z,20.70
2022-12-18T14:24:36.616Z,21.33
2022-12-18T14:26:38.897Z,21.17
2022-12-18T14:28:47.336Z,21.90
2022-12-18T14:30:50.351Z,18.00
2022-12-18T14:33:11.471Z,21.33
2022-12-18T14:35:14.728Z,21.03
2022-12-18T14:37:23.067Z,22.33
2022-12-18T14:39:26.452Z,21.63
2022-12-18T14:41:29.813Z,21.50
2022-12-18T14:43:40.156Z,18.98
2022-12-18T14:45:44.471Z,19.87
2022-12-18T14:47:46.669Z,22.50
2022-12-18T14:49:48.702Z,19.40
2022-12-18T14:51:59.059Z,19.27
2022-12-18T14:54:09.236Z,20.70
2022-12-18T14:56:29.251Z,20.30
2022-12-18T14:58:31.421Z,18.30
2022-12-18T15:00:33.432Z,20.17
2022-12-18T15:02:36.781Z,19.10
2022-12-18T15:04:42.486Z,21.07
2022-12-18T15:06:46.897Z,20.90
2022-12-18T15:08:48.987Z,22.60
2022-12-18T15:10:51.026Z,22.33
2022-12-18T15:12:57.159Z,23.60
2022-12-18T15:14:59.244Z,22.27
2022-12-18T15:17:03.826Z,21.03
2022-12-18T15:19:08.610Z,21.63
2022-12-18T15:21:11.976Z,19.80
2022-12-18T15:23:47.647Z,21.63
2022-12-18T15:26:00.975Z,21.37
2022-12-18T15:28:03.191Z,20.97
2022-12-18T15:30:11.057Z,19.60
2022-12-18T15:32:21.099Z,19.10
2022-12-18T15:34:23.784Z,19.70
2022-12-18T15:36:27.042Z,20.30
2022-12-18T15:38:29.499Z,20.40
2022-12-18T15:40:31.500Z,18.00
2022-12-18T15:42:51.927Z,20.47
2022-12-18T15:44:53.919Z,19.83
2022-12-18T15:46:55.936Z,18.43
2022-12-18T15:49:02.128Z,20.52
2022-12-18T15:51:06.757Z,19.57
2022-12-18T15:53:09.197Z,17.97
2022-12-18T15:55:35.117Z,19.00
2022-12-18T15:57:38.466Z,18.43
2022-12-18T15:59:40.670Z,18.52
2022-12-18T16:01:44.572Z,20.10
2022-12-18T16:03:46.793Z,19.30
2022-12-18T16:05:48.799Z,17.58
2022-12-18T16:07:50.868Z,21.20
2022-12-18T16:09:52.955Z,20.60
2022-12-18T16:11:55.005Z,21.43
2022-12-18T16:13:57.039Z,21.17
2022-12-18T16:15:59.403Z,22.57
2022-12-18T16:18:01.431Z,20.80
2022-12-18T16:20:04.234Z,21.95
2022-12-18T16:22:06.707Z,20.17
2022-12-18T16:24:23.604Z,21.73
2022-12-18T16:26:26.612Z,20.80
2022-12-18T16:28:29.505Z,20.17
2022-12-18T16:30:36.096Z,21.57
2022-12-18T16:32:40.402Z,20.10
2022-12-18T16:34:43.181Z,21.90
2022-12-18T16:36:45.150Z,23.30
2022-12-18T16:38:47.132Z,21.87
2022-12-18T16:41:09.021Z,20.97
2022-12-18T16:43:11.050Z,20.77
2022-12-18T16:45:18.395Z,24.53
2022-12-18T16:47:20.439Z,22.27
2022-12-18T16:49:22.603Z,21.37
2022-12-18T16:51:24.744Z,20.00
2022-12-18T16:53:29.562Z,21.03
2022-12-18T16:55:32.165Z,21.55
2022-12-18T16:57:34.287Z,24.43
2022-12-18T16:59:36.397Z,28.30
2022-12-18T17:01:38.791Z,24.98
2022-12-18T17:03:41.153Z,26.00
2022-12-18T17:05:46.512Z,25.90
2022-12-18T17:07:50.915Z,23.67
2022-12-18T17:09:54.231Z,25.10
2022-12-18T17:11:56.462Z,24.48
2022-12-18T17:13:58.683Z,24.00
2022-12-18T17:16:03.832Z,26.50
2022-12-18T17:18:05.915Z,23.30
2022-12-18T17:20:08.480Z,25.97
2022-12-18T17:22:10.502Z,24.27
2022-12-18T17:24:12.476Z,24.03
2022-12-18T17:26:14.413Z,25.20
2022-12-18T17:28:16.374Z,28.20
2022-12-18T17:30:18.410Z,24.40
2022-12-18T17:32:20.438Z,23.55
2022-12-18T17:34:22.402Z,27.10
2022-12-18T17:36:28.503Z,26.10
2022-12-18T17:38:30.512Z,23.20
2022-12-18T17:40:35.910Z,26.53
2022-12-18T17:42:38.111Z,25.03
2022-12-18T17:44:40.089Z,24.30
2022-12-18T17:46:42.628Z,24.90
2022-12-18T17:48:44.746Z,23.57
2022-12-18T17:50:46.698Z,27.70
2022-12-18T17:52:48.726Z,28.95
2022-12-18T17:54:50.729Z,28.97
2022-12-18T17:56:52.965Z,35.57
2022-12-18T17:58:55.003Z,30.40
2022-12-18T18:00:57.001Z,29.55
2022-12-18T18:02:59.143Z,26.70
2022-12-18T18:05:01.322Z,26.03
2022-12-18T18:07:03.307Z,25.70
2022-12-18T18:09:15.958Z,27.03
2022-12-18T18:11:38.301Z,25.87
2022-12-18T18:13:59.279Z,27.27
2022-12-18T18:16:03.523Z,25.37
2022-12-18T18:18:05.570Z,24.25
2022-12-18T18:20:08.150Z,26.87
2022-12-18T18:22:10.438Z,28.10
2022-12-18T18:24:14.580Z,25.00
2022-12-18T18:26:16.782Z,27.10
2022-12-18T18:28:18.899Z,24.07
2022-12-18T18:30:20.960Z,26.30
2022-12-18T18:32:23.079Z,26.00
2022-12-18T18:34:27.153Z,21.67
2022-12-18T18:36:29.611Z,25.10
2022-12-18T18:38:32.713Z,24.77
2022-12-18T18:40:34.791Z,25.30
2022-12-18T18:42:36.782Z,24.60
2022-12-18T18:44:38.830Z,28.60
2022-12-18T18:46:40.769Z,27.23
2022-12-18T18:48:43.834Z,25.77
2022-12-18T18:51:05.187Z,26.80
2022-12-18T18:53:07.178Z,29.07
2022-12-18T18:55:13.823Z,27.60
2022-12-18T18:57:30.328Z,25.90
2022-12-18T18:59:32.683Z,24.60
2022-12-18T19:01:34.992Z,26.70
2022-12-18T19:03:37.908Z,25.90
2022-12-18T19:05:44.461Z,26.80
2022-12-18T19:07:49.456Z,23.07
2022-12-18T19:09:53.876Z,23.63
2022-12-18T19:12:15.254Z,25.20
2022-12-18T19:14:17.530Z,23.57
2022-12-18T19:16:19.697Z,24.73
2022-12-18T19:18:22.926Z,23.27
2022-12-18T19:20:25.090Z,23.87
2022-12-18T19:22:27.160Z,24.00
2022-12-18T19:24:29.182Z,22.47
2022-12-18T19:26:31.294Z,22.87
2022-12-18T19:28:33.802Z,23.57
2022-12-18T19:30:39.041Z,23.53
2022-12-18T19:32:41.035Z,22.23
2022-12-18T19:34:43.039Z,21.90
2022-12-18T19:36:47.281Z,22.90
2022-12-18T19:38:50.994Z,22.50
2022-12-18T19:40:53.238Z,25.10
2022-12-18T19:42:55.464Z,22.53
2022-12-18T19:44:57.505Z,21.50
2022-12-18T19:46:59.591Z,20.63
2022-12-18T19:49:01.674Z,23.30
2022-12-18T19:51:10.095Z,21.53
2022-12-18T19:53:12.221Z,21.57
2022-12-18T19:55:14.290Z,22.97
2022-12-18T19:57:16.429Z,21.97
2022-12-18T19:59:18.416Z,20.53
2022-12-18T20:01:21.686Z,21.50
2022-12-18T20:03:31.926Z,21.53
2022-12-18T20:05:34.509Z,19.80
2022-12-18T20:07:36.771Z,20.27
2022-12-18T20:09:38.873Z,20.00
2022-12-18T20:11:42.536Z,22.97
2022-12-18T20:13:44.961Z,19.80
2022-12-18T20:15:47.116Z,20.23
2022-12-18T20:17:49.518Z,18.87
2022-12-18T20:19:51.836Z,19.60
2022-12-18T20:21:53.975Z,23.23
2022-12-18T20:23:56.094Z,21.23
2022-12-18T20:25:58.125Z,21.60
2022-12-18T20:28:00.129Z,19.83
2022-12-18T20:30:02.134Z,19.70
2022-12-18T20:32:04.443Z,20.13
2022-12-18T20:34:07.171Z,21.47
2022-12-18T20:36:14.345Z,19.17
2022-12-18T20:38:17.379Z,17.83
2022-12-18T20:40:19.893Z,18.93
2022-12-18T20:42:21.938Z,19.63
2022-12-18T20:44:24.287Z,19.83
2022-12-18T20:46:26.393Z,20.33
2022-12-18T20:48:28.995Z,20.23
2022-12-18T20:50:30.973Z,20.77
2022-12-18T20:52:33.048Z,21.27
2022-12-18T20:54:35.109Z,21.00
2022-12-18T20:56:37.202Z,22.73
2022-12-18T20:58:39.214Z,22.57
2022-12-18T21:00:41.204Z,21.90
2022-12-18T21:02:43.267Z,22.67
2022-12-18T21:04:45.392Z,20.77
2022-12-18T21:06:52.372Z,19.57
2022-12-18T21:08:56.430Z,20.47
2022-12-18T21:11:44.962Z,20.77
2022-12-18T21:13:47.173Z,19.93
2022-12-18T21:15:49.165Z,21.13
2022-12-18T21:17:51.151Z,22.07
2022-12-18T21:19:53.322Z,20.70
2022-12-18T21:21:57.139Z,19.50
2022-12-18T21:23:59.387Z,20.73
2022-12-18T21:26:25.330Z,19.73
2022-12-18T21:28:27.388Z,18.90
2022-12-18T21:30:29.499Z,18.63
2022-12-18T21:32:33.483Z,20.17
2022-12-18T21:34:35.913Z,20.77
2022-12-18T21:36:37.977Z,21.20
2022-12-18T21:38:40.212Z,20.37
2022-12-18T21:40:42.603Z,20.47
2022-12-18T21:43:03.266Z,19.53
2022-12-18T21:45:05.609Z,18.30
2022-12-18T21:47:22.708Z,19.80
2022-12-18T21:49:25.441Z,18.37
2022-12-18T21:51:27.506Z,20.57
2022-12-18T21:53:29.628Z,19.90
2022-12-18T21:55:31.806Z,19.63
2022-12-18T21:57:33.909Z,18.93
2022-12-18T21:59:40.383Z,17.77
2022-12-18T22:01:42.554Z,18.90
2022-12-18T22:03:45.472Z,21.27
2022-12-18T22:05:51.432Z,15.83
2022-12-18T22:08:09.852Z,18.10
2022-12-18T22:10:12.194Z,18.80
2022-12-18T22:12:34.256Z,20.00
2022-12-18T22:14:36.400Z,17.27
2022-12-18T22:16:38.606Z,19.10
2022-12-18T22:18:41.859Z,18.50
2022-12-18T22:20:43.911Z,18.07
2022-12-18T22:22:46.052Z,19.03
2022-12-18T22:24:48.151Z,21.40
2022-12-18T22:26:51.601Z,17.73
2022-12-18T22:29:12.544Z,19.10
2022-12-18T22:31:14.675Z,19.33
2022-12-18T22:33:16.750Z,18.90
2022-12-18T22:35:18.999Z,18.23
2022-12-18T22:37:21.323Z,17.47
2022-12-18T22:39:28.595Z,18.67
2022-12-18T22:41:31.488Z,18.20
2022-12-18T22:43:34.742Z,18.03
2022-12-18T22:45:38.826Z,17.90
2022-12-18T22:47:41.308Z,18.03
2022-12-18T22:49:43.387Z,15.87
2022-12-18T22:51:45.483Z,17.53
2022-12-18T22:53:48.045Z,19.13
2022-12-18T22:55:51.218Z,18.70
2022-12-18T22:57:53.367Z,16.77
2022-12-18T22:59:55.359Z,19.50
2022-12-18T23:01:58.570Z,17.30
2022-12-18T23:04:01.807Z,15.67
2022-12-18T23:06:05.730Z,16.57
2022-12-18T23:08:07.847Z,15.30
2022-12-18T23:10:09.998Z,17.03
2022-12-18T23:12:15.390Z,16.80
2022-12-18T23:14:17.890Z,16.90
2022-12-18T23:16:20.749Z,18.77
2022-12-18T23:18:23.007Z,17.50
2022-12-18T23:20:26.549Z,17.63
2022-12-18T23:22:30.385Z,16.70
2022-12-18T23:24:32.724Z,15.13
2022-12-18T23:26:35.045Z,16.30
2022-12-18T23:28:37.528Z,15.50
2022-12-18T23:30:39.548Z,17.33
2022-12-18T23:32:41.622Z,16.37
2022-12-18T23:34:43.778Z,16.70
2022-12-18T23:36:47.094Z,18.00
2022-12-18T23:38:58.271Z,16.10
2022-12-18T23:41:01.034Z,15.97
2022-12-18T23:43:03.048Z,15.90
2022-12-18T23:45:11.751Z,15.87
2022-12-18T23:47:19.904Z,17.00
2022-12-18T23:49:22.007Z,14.67
2022-12-18T23:51:25.685Z,16.70
2022-12-18T23:53:27.663Z,16.17
2022-12-18T23:55:29.803Z,17.00
2022-12-18T23:57:31.847Z,16.30
2022-12-18T23:59:34.046Z,15.60
